sensor_id;sensor_type;location;lat;lon;timestamp;temperature;humidity
20672;DHT22;10495;50.922;4.760;2023-06-10T00:01:24;23.70;52.30
20672;DHT22;10495;50.922;4.760;2023-06-10T00:03:51;23.70;52.20
20672;DHT22;10495;50.922;4.760;2023-06-10T00:06:19;23.50;52.30
20672;DHT22;10495;50.922;4.760;2023-06-10T00:08:47;23.30;52.60
20672;DHT22;10495;50.922;4.760;2023-06-10T00:11:12;23.50;52.60
20672;DHT22;10495;50.922;4.760;2023-06-10T00:13:38;23.30;52.60
20672;DHT22;10495;50.922;4.760;2023-06-10T00:16:04;23.20;52.70
20672;DHT22;10495;50.922;4.760;2023-06-10T00:18:29;23.40;52.50
20672;DHT22;10495;50.922;4.760;2023-06-10T00:20:57;23.30;52.70
20672;DHT22;10495;50.922;4.760;2023-06-10T00:23:22;23.30;52.60
20672;DHT22;10495;50.922;4.760;2023-06-10T00:25:50;23.20;52.70
20672;DHT22;10495;50.922;4.760;2023-06-10T00:28:16;23.10;52.60
20672;DHT22;10495;50.922;4.760;2023-06-10T00:30:41;23.20;52.80
20672;DHT22;10495;50.922;4.760;2023-06-10T00:33:07;23.10;52.80
20672;DHT22;10495;50.922;4.760;2023-06-10T00:35:32;23.20;52.80
20672;DHT22;10495;50.922;4.760;2023-06-10T00:37:58;23.00;53.00
20672;DHT22;10495;50.922;4.760;2023-06-10T00:40:24;23.00;52.90
20672;DHT22;10495;50.922;4.760;2023-06-10T00:42:49;22.90;53.20
20672;DHT22;10495;50.922;4.760;2023-06-10T00:45:15;22.90;53.00
20672;DHT22;10495;50.922;4.760;2023-06-10T00:47:40;22.90;53.20
20672;DHT22;10495;50.922;4.760;2023-06-10T00:50:06;23.00;53.00
20672;DHT22;10495;50.922;4.760;2023-06-10T00:52:33;22.90;53.10
20672;DHT22;10495;50.922;4.760;2023-06-10T00:55:00;22.90;53.10
20672;DHT22;10495;50.922;4.760;2023-06-10T00:57:26;22.90;53.10
20672;DHT22;10495;50.922;4.760;2023-06-10T00:59:52;22.80;53.20
20672;DHT22;10495;50.922;4.760;2023-06-10T01:02:17;22.90;53.30
20672;DHT22;10495;50.922;4.760;2023-06-10T01:04:43;22.90;53.50
20672;DHT22;10495;50.922;4.760;2023-06-10T01:10:01;22.50;53.50
20672;DHT22;10495;50.922;4.760;2023-06-10T01:12:41;22.60;53.70
20672;DHT22;10495;50.922;4.760;2023-06-10T01:15:12;22.50;53.80
20672;DHT22;10495;50.922;4.760;2023-06-10T01:20:26;22.60;53.90
20672;DHT22;10495;50.922;4.760;2023-06-10T01:22:54;22.40;53.80
20672;DHT22;10495;50.922;4.760;2023-06-10T01:25:23;22.40;54.10
20672;DHT22;10495;50.922;4.760;2023-06-10T01:28:18;22.40;54.00
20672;DHT22;10495;50.922;4.760;2023-06-10T01:30:56;22.30;54.20
20672;DHT22;10495;50.922;4.760;2023-06-10T01:33:28;22.20;54.30
20672;DHT22;10495;50.922;4.760;2023-06-10T01:35:59;22.30;54.50
20672;DHT22;10495;50.922;4.760;2023-06-10T01:38:27;22.30;54.40
20672;DHT22;10495;50.922;4.760;2023-06-10T01:40:55;22.30;54.50
20672;DHT22;10495;50.922;4.760;2023-06-10T01:43:22;22.20;54.60
20672;DHT22;10495;50.922;4.760;2023-06-10T01:45:47;22.00;54.70
20672;DHT22;10495;50.922;4.760;2023-06-10T01:48:13;22.00;54.90
20672;DHT22;10495;50.922;4.760;2023-06-10T01:50:39;21.90;55.00
20672;DHT22;10495;50.922;4.760;2023-06-10T01:53:05;21.90;55.10
20672;DHT22;10495;50.922;4.760;2023-06-10T01:55:33;21.90;55.30
20672;DHT22;10495;50.922;4.760;2023-06-10T01:57:59;22.00;55.30
20672;DHT22;10495;50.922;4.760;2023-06-10T02:00:24;21.90;55.20
20672;DHT22;10495;50.922;4.760;2023-06-10T02:02:50;21.70;55.30
20672;DHT22;10495;50.922;4.760;2023-06-10T02:05:16;21.60;55.50
20672;DHT22;10495;50.922;4.760;2023-06-10T02:07:41;21.50;55.60
20672;DHT22;10495;50.922;4.760;2023-06-10T02:10:07;21.40;55.70
20672;DHT22;10495;50.922;4.760;2023-06-10T02:12:33;21.30;55.70
20672;DHT22;10495;50.922;4.760;2023-06-10T02:14:59;21.30;55.90
20672;DHT22;10495;50.922;4.760;2023-06-10T02:17:24;21.30;56.00
20672;DHT22;10495;50.922;4.760;2023-06-10T02:19:50;21.20;56.00
20672;DHT22;10495;50.922;4.760;2023-06-10T02:22:21;21.20;56.10
20672;DHT22;10495;50.922;4.760;2023-06-10T02:24:48;21.40;56.40
20672;DHT22;10495;50.922;4.760;2023-06-10T02:27:14;21.50;56.40
20672;DHT22;10495;50.922;4.760;2023-06-10T02:29:40;21.50;56.20
20672;DHT22;10495;50.922;4.760;2023-06-10T02:32:07;21.50;56.40
20672;DHT22;10495;50.922;4.760;2023-06-10T02:34:33;21.50;56.40
20672;DHT22;10495;50.922;4.760;2023-06-10T02:36:59;21.20;56.40
20672;DHT22;10495;50.922;4.760;2023-06-10T02:39:24;21.10;56.60
20672;DHT22;10495;50.922;4.760;2023-06-10T02:41:50;21.00;56.80
20672;DHT22;10495;50.922;4.760;2023-06-10T02:44:18;21.00;56.90
20672;DHT22;10495;50.922;4.760;2023-06-10T02:46:44;21.20;57.00
20672;DHT22;10495;50.922;4.760;2023-06-10T02:49:09;21.10;57.20
20672;DHT22;10495;50.922;4.760;2023-06-10T02:51:35;21.00;57.10
20672;DHT22;10495;50.922;4.760;2023-06-10T02:54:01;21.10;57.30
20672;DHT22;10495;50.922;4.760;2023-06-10T02:56:27;21.10;57.30
20672;DHT22;10495;50.922;4.760;2023-06-10T02:58:53;21.10;57.30
20672;DHT22;10495;50.922;4.760;2023-06-10T03:01:18;20.90;57.20
20672;DHT22;10495;50.922;4.760;2023-06-10T03:03:45;20.90;57.60
20672;DHT22;10495;50.922;4.760;2023-06-10T03:06:12;20.90;57.60
20672;DHT22;10495;50.922;4.760;2023-06-10T03:08:39;20.90;57.60
20672;DHT22;10495;50.922;4.760;2023-06-10T03:11:04;20.70;57.80
20672;DHT22;10495;50.922;4.760;2023-06-10T03:13:30;20.50;57.90
20672;DHT22;10495;50.922;4.760;2023-06-10T03:15:56;20.50;58.20
20672;DHT22;10495;50.922;4.760;2023-06-10T03:18:25;20.50;58.30
20672;DHT22;10495;50.922;4.760;2023-06-10T03:20:51;20.60;58.40
20672;DHT22;10495;50.922;4.760;2023-06-10T03:23:17;20.70;58.30
20672;DHT22;10495;50.922;4.760;2023-06-10T03:25:44;20.50;58.30
20672;DHT22;10495;50.922;4.760;2023-06-10T03:28:10;20.30;58.50
20672;DHT22;10495;50.922;4.760;2023-06-10T03:30:35;20.20;58.50
20672;DHT22;10495;50.922;4.760;2023-06-10T03:33:01;20.20;58.80
20672;DHT22;10495;50.922;4.760;2023-06-10T03:35:27;20.30;58.90
20672;DHT22;10495;50.922;4.760;2023-06-10T03:37:52;20.40;59.00
20672;DHT22;10495;50.922;4.760;2023-06-10T03:40:18;20.40;58.90
20672;DHT22;10495;50.922;4.760;2023-06-10T03:42:43;20.40;59.10
20672;DHT22;10495;50.922;4.760;2023-06-10T03:45:10;20.40;58.90
20672;DHT22;10495;50.922;4.760;2023-06-10T03:47:36;20.20;59.10
20672;DHT22;10495;50.922;4.760;2023-06-10T03:50:06;20.30;59.30
20672;DHT22;10495;50.922;4.760;2023-06-10T03:52:32;20.10;59.50
20672;DHT22;10495;50.922;4.760;2023-06-10T03:54:57;20.20;59.70
20672;DHT22;10495;50.922;4.760;2023-06-10T03:57:23;20.20;59.60
20672;DHT22;10495;50.922;4.760;2023-06-10T03:59:48;20.30;59.60
20672;DHT22;10495;50.922;4.760;2023-06-10T04:02:14;20.30;59.80
20672;DHT22;10495;50.922;4.760;2023-06-10T04:04:40;20.30;59.90
20672;DHT22;10495;50.922;4.760;2023-06-10T04:07:06;20.20;59.90
20672;DHT22;10495;50.922;4.760;2023-06-10T04:09:33;20.10;59.90
20672;DHT22;10495;50.922;4.760;2023-06-10T04:11:59;20.30;59.90
20672;DHT22;10495;50.922;4.760;2023-06-10T04:14:24;20.00;60.40
20672;DHT22;10495;50.922;4.760;2023-06-10T04:16:50;20.10;60.60
20672;DHT22;10495;50.922;4.760;2023-06-10T04:19:16;20.20;60.60
20672;DHT22;10495;50.922;4.760;2023-06-10T04:21:42;20.40;60.40
20672;DHT22;10495;50.922;4.760;2023-06-10T04:24:07;20.60;60.00
20672;DHT22;10495;50.922;4.760;2023-06-10T04:26:35;20.70;60.10
20672;DHT22;10495;50.922;4.760;2023-06-10T04:29:01;20.60;60.20
20672;DHT22;10495;50.922;4.760;2023-06-10T04:31:27;20.60;60.40
20672;DHT22;10495;50.922;4.760;2023-06-10T04:33:53;20.70;60.50
20672;DHT22;10495;50.922;4.760;2023-06-10T04:36:19;20.70;60.50
20672;DHT22;10495;50.922;4.760;2023-06-10T04:38:44;20.80;60.30
20672;DHT22;10495;50.922;4.760;2023-06-10T04:41:11;20.80;60.50
20672;DHT22;10495;50.922;4.760;2023-06-10T04:43:36;20.80;60.50
20672;DHT22;10495;50.922;4.760;2023-06-10T04:46:02;20.80;60.60
20672;DHT22;10495;50.922;4.760;2023-06-10T04:48:27;20.90;60.50
20672;DHT22;10495;50.922;4.760;2023-06-10T04:50:53;21.00;60.20
20672;DHT22;10495;50.922;4.760;2023-06-10T04:53:19;21.00;60.40
20672;DHT22;10495;50.922;4.760;2023-06-10T04:55:44;20.90;61.00
20672;DHT22;10495;50.922;4.760;2023-06-10T04:58:10;21.20;60.80
20672;DHT22;10495;50.922;4.760;2023-06-10T05:00:36;21.40;60.70
20672;DHT22;10495;50.922;4.760;2023-06-10T05:03:01;21.70;60.20
20672;DHT22;10495;50.922;4.760;2023-06-10T05:05:27;21.90;59.90
20672;DHT22;10495;50.922;4.760;2023-06-10T05:07:53;22.30;59.60
20672;DHT22;10495;50.922;4.760;2023-06-10T05:10:18;22.70;59.00
20672;DHT22;10495;50.922;4.760;2023-06-10T05:12:44;23.00;58.70
20672;DHT22;10495;50.922;4.760;2023-06-10T05:15:10;23.20;58.30
20672;DHT22;10495;50.922;4.760;2023-06-10T05:17:36;23.30;58.50
20672;DHT22;10495;50.922;4.760;2023-06-10T05:20:02;23.70;58.20
20672;DHT22;10495;50.922;4.760;2023-06-10T05:22:28;24.10;58.20
20672;DHT22;10495;50.922;4.760;2023-06-10T05:24:53;24.40;57.50
20672;DHT22;10495;50.922;4.760;2023-06-10T05:27:19;24.60;57.20
20672;DHT22;10495;50.922;4.760;2023-06-10T05:29:45;24.90;56.90
20672;DHT22;10495;50.922;4.760;2023-06-10T05:32:11;25.00;56.90
20672;DHT22;10495;50.922;4.760;2023-06-10T05:34:37;25.20;57.00
20672;DHT22;10495;50.922;4.760;2023-06-10T05:37:03;25.50;56.60
20672;DHT22;10495;50.922;4.760;2023-06-10T05:39:29;25.80;56.20
20672;DHT22;10495;50.922;4.760;2023-06-10T05:41:54;26.10;56.50
20672;DHT22;10495;50.922;4.760;2023-06-10T05:44:20;26.20;55.90
20672;DHT22;10495;50.922;4.760;2023-06-10T05:46:46;26.50;55.30
20672;DHT22;10495;50.922;4.760;2023-06-10T05:49:11;26.60;55.20
20672;DHT22;10495;50.922;4.760;2023-06-10T05:51:37;26.60;55.40
20672;DHT22;10495;50.922;4.760;2023-06-10T05:54:03;26.80;55.40
20672;DHT22;10495;50.922;4.760;2023-06-10T05:56:29;27.10;55.00
20672;DHT22;10495;50.922;4.760;2023-06-10T05:58:55;27.10;54.70
20672;DHT22;10495;50.922;4.760;2023-06-10T06:01:21;27.30;54.60
20672;DHT22;10495;50.922;4.760;2023-06-10T06:03:46;27.40;54.60
20672;DHT22;10495;50.922;4.760;2023-06-10T06:06:12;27.40;54.50
20672;DHT22;10495;50.922;4.760;2023-06-10T06:08:38;27.60;54.10
20672;DHT22;10495;50.922;4.760;2023-06-10T06:11:03;27.60;54.30
20672;DHT22;10495;50.922;4.760;2023-06-10T06:13:29;27.50;54.10
20672;DHT22;10495;50.922;4.760;2023-06-10T06:15:54;27.60;54.20
20672;DHT22;10495;50.922;4.760;2023-06-10T06:18:20;27.50;54.10
20672;DHT22;10495;50.922;4.760;2023-06-10T06:20:46;27.40;54.00
20672;DHT22;10495;50.922;4.760;2023-06-10T06:23:11;27.40;54.30
20672;DHT22;10495;50.922;4.760;2023-06-10T06:25:37;27.60;54.20
20672;DHT22;10495;50.922;4.760;2023-06-10T06:28:06;27.80;54.40
20672;DHT22;10495;50.922;4.760;2023-06-10T06:30:31;27.90;54.20
20672;DHT22;10495;50.922;4.760;2023-06-10T06:32:57;28.20;53.70
20672;DHT22;10495;50.922;4.760;2023-06-10T06:35:23;28.70;53.50
20672;DHT22;10495;50.922;4.760;2023-06-10T06:37:48;28.80;53.30
20672;DHT22;10495;50.922;4.760;2023-06-10T06:40:14;28.80;52.70
20672;DHT22;10495;50.922;4.760;2023-06-10T06:42:39;28.80;53.20
20672;DHT22;10495;50.922;4.760;2023-06-10T06:45:05;28.90;53.30
20672;DHT22;10495;50.922;4.760;2023-06-10T06:47:31;28.90;53.00
20672;DHT22;10495;50.922;4.760;2023-06-10T06:49:57;29.20;53.00
20672;DHT22;10495;50.922;4.760;2023-06-10T06:52:22;29.40;53.20
20672;DHT22;10495;50.922;4.760;2023-06-10T06:54:48;29.60;52.60
20672;DHT22;10495;50.922;4.760;2023-06-10T06:57:14;29.70;52.50
20672;DHT22;10495;50.922;4.760;2023-06-10T06:59:39;29.80;53.00
20672;DHT22;10495;50.922;4.760;2023-06-10T07:02:05;30.20;52.60
20672;DHT22;10495;50.922;4.760;2023-06-10T07:04:31;30.50;52.10
20672;DHT22;10495;50.922;4.760;2023-06-10T07:06:57;30.20;51.70
20672;DHT22;10495;50.922;4.760;2023-06-10T07:09:22;30.10;52.20
20672;DHT22;10495;50.922;4.760;2023-06-10T07:11:48;30.40;51.90
20672;DHT22;10495;50.922;4.760;2023-06-10T07:14:13;30.60;51.80
20672;DHT22;10495;50.922;4.760;2023-06-10T07:16:39;30.70;51.40
20672;DHT22;10495;50.922;4.760;2023-06-10T07:19:05;31.30;50.50
20672;DHT22;10495;50.922;4.760;2023-06-10T07:21:30;31.30;50.20
20672;DHT22;10495;50.922;4.760;2023-06-10T07:23:57;31.30;50.60
20672;DHT22;10495;50.922;4.760;2023-06-10T07:26:23;31.10;49.90
20672;DHT22;10495;50.922;4.760;2023-06-10T07:28:50;31.10;50.60
20672;DHT22;10495;50.922;4.760;2023-06-10T07:31:16;31.10;50.70
20672;DHT22;10495;50.922;4.760;2023-06-10T07:33:41;31.40;49.90
20672;DHT22;10495;50.922;4.760;2023-06-10T07:36:09;31.60;49.70
20672;DHT22;10495;50.922;4.760;2023-06-10T07:38:35;31.60;49.80
20672;DHT22;10495;50.922;4.760;2023-06-10T07:41:01;31.60;50.00
20672;DHT22;10495;50.922;4.760;2023-06-10T07:43:26;31.50;50.20
20672;DHT22;10495;50.922;4.760;2023-06-10T07:45:52;31.30;50.50
20672;DHT22;10495;50.922;4.760;2023-06-10T07:48:18;31.50;50.40
20672;DHT22;10495;50.922;4.760;2023-06-10T07:50:44;31.50;50.80
20672;DHT22;10495;50.922;4.760;2023-06-10T07:53:10;31.90;50.50
20672;DHT22;10495;50.922;4.760;2023-06-10T07:55:35;32.20;49.30
20672;DHT22;10495;50.922;4.760;2023-06-10T07:58:01;32.50;48.90
20672;DHT22;10495;50.922;4.760;2023-06-10T08:00:26;32.40;49.40
20672;DHT22;10495;50.922;4.760;2023-06-10T08:02:52;32.20;49.10
20672;DHT22;10495;50.922;4.760;2023-06-10T08:05:18;32.50;48.80
20672;DHT22;10495;50.922;4.760;2023-06-10T08:07:44;32.60;49.00
20672;DHT22;10495;50.922;4.760;2023-06-10T08:10:10;32.70;48.70
20672;DHT22;10495;50.922;4.760;2023-06-10T08:12:36;32.70;49.00
20672;DHT22;10495;50.922;4.760;2023-06-10T08:15:02;32.80;49.30
20672;DHT22;10495;50.922;4.760;2023-06-10T08:17:32;32.90;48.80
20672;DHT22;10495;50.922;4.760;2023-06-10T08:19:57;33.30;48.60
20672;DHT22;10495;50.922;4.760;2023-06-10T08:22:23;33.40;48.70
20672;DHT22;10495;50.922;4.760;2023-06-10T08:24:49;33.80;48.30
20672;DHT22;10495;50.922;4.760;2023-06-10T08:27:14;33.90;48.30
20672;DHT22;10495;50.922;4.760;2023-06-10T08:29:40;33.90;48.30
20672;DHT22;10495;50.922;4.760;2023-06-10T08:32:06;33.90;48.00
20672;DHT22;10495;50.922;4.760;2023-06-10T08:34:35;34.00;47.80
20672;DHT22;10495;50.922;4.760;2023-06-10T08:37:01;34.00;47.60
20672;DHT22;10495;50.922;4.760;2023-06-10T08:39:27;33.80;48.00
20672;DHT22;10495;50.922;4.760;2023-06-10T08:42:33;33.70;48.20
20672;DHT22;10495;50.922;4.760;2023-06-10T08:45:01;33.60;47.50
20672;DHT22;10495;50.922;4.760;2023-06-10T08:47:29;33.70;47.50
20672;DHT22;10495;50.922;4.760;2023-06-10T08:49:57;33.80;47.60
20672;DHT22;10495;50.922;4.760;2023-06-10T08:52:29;33.70;48.20
20672;DHT22;10495;50.922;4.760;2023-06-10T08:55:01;33.50;47.90
20672;DHT22;10495;50.922;4.760;2023-06-10T08:57:27;33.40;48.90
20672;DHT22;10495;50.922;4.760;2023-06-10T08:59:53;34.00;48.00
20672;DHT22;10495;50.922;4.760;2023-06-10T09:02:20;34.40;47.50
20672;DHT22;10495;50.922;4.760;2023-06-10T09:04:49;34.40;47.20
20672;DHT22;10495;50.922;4.760;2023-06-10T09:07:18;35.00;46.60
20672;DHT22;10495;50.922;4.760;2023-06-10T09:09:44;34.70;46.90
20672;DHT22;10495;50.922;4.760;2023-06-10T09:12:11;34.80;47.40
20672;DHT22;10495;50.922;4.760;2023-06-10T09:14:37;34.90;47.60
20672;DHT22;10495;50.922;4.760;2023-06-10T09:17:04;34.70;46.60
20672;DHT22;10495;50.922;4.760;2023-06-10T09:19:30;34.60;46.70
20672;DHT22;10495;50.922;4.760;2023-06-10T09:21:56;34.70;46.80
20672;DHT22;10495;50.922;4.760;2023-06-10T09:24:25;34.90;47.00
20672;DHT22;10495;50.922;4.760;2023-06-10T09:27:02;34.80;47.30
20672;DHT22;10495;50.922;4.760;2023-06-10T09:29:28;34.70;47.40
20672;DHT22;10495;50.922;4.760;2023-06-10T09:31:53;34.90;46.90
20672;DHT22;10495;50.922;4.760;2023-06-10T09:34:24;34.80;47.40
20672;DHT22;10495;50.922;4.760;2023-06-10T09:36:50;35.20;47.10
20672;DHT22;10495;50.922;4.760;2023-06-10T09:39:16;34.80;46.80
20672;DHT22;10495;50.922;4.760;2023-06-10T09:41:43;34.90;46.90
20672;DHT22;10495;50.922;4.760;2023-06-10T09:44:20;34.90;46.50
20672;DHT22;10495;50.922;4.760;2023-06-10T09:46:48;34.90;46.40
20672;DHT22;10495;50.922;4.760;2023-06-10T09:49:16;34.40;46.50
20672;DHT22;10495;50.922;4.760;2023-06-10T09:51:54;34.30;46.80
20672;DHT22;10495;50.922;4.760;2023-06-10T09:54:21;34.50;46.70
20672;DHT22;10495;50.922;4.760;2023-06-10T09:56:51;34.80;47.20
20672;DHT22;10495;50.922;4.760;2023-06-10T09:59:30;34.50;46.60
20672;DHT22;10495;50.922;4.760;2023-06-10T10:01:57;34.60;46.40
20672;DHT22;10495;50.922;4.760;2023-06-10T10:04:26;34.70;46.00
20672;DHT22;10495;50.922;4.760;2023-06-10T10:06:53;35.30;45.70
20672;DHT22;10495;50.922;4.760;2023-06-10T10:09:19;35.60;45.90
20672;DHT22;10495;50.922;4.760;2023-06-10T10:11:45;35.30;46.10
20672;DHT22;10495;50.922;4.760;2023-06-10T10:14:12;35.60;45.00
20672;DHT22;10495;50.922;4.760;2023-06-10T10:16:41;35.30;45.40
20672;DHT22;10495;50.922;4.760;2023-06-10T10:19:27;35.40;44.60
20672;DHT22;10495;50.922;4.760;2023-06-10T10:21:54;35.50;44.50
20672;DHT22;10495;50.922;4.760;2023-06-10T10:24:27;35.30;44.30
20672;DHT22;10495;50.922;4.760;2023-06-10T10:26:58;35.00;44.80
20672;DHT22;10495;50.922;4.760;2023-06-10T10:29:38;34.80;44.60
20672;DHT22;10495;50.922;4.760;2023-06-10T10:32:08;34.80;44.60
20672;DHT22;10495;50.922;4.760;2023-06-10T10:34:43;35.00;44.30
20672;DHT22;10495;50.922;4.760;2023-06-10T10:37:10;34.40;43.00
20672;DHT22;10495;50.922;4.760;2023-06-10T10:39:36;33.90;43.20
20672;DHT22;10495;50.922;4.760;2023-06-10T10:42:04;33.80;44.00
20672;DHT22;10495;50.922;4.760;2023-06-10T10:44:30;33.50;44.20
20672;DHT22;10495;50.922;4.760;2023-06-10T10:46:56;33.30;44.00
20672;DHT22;10495;50.922;4.760;2023-06-10T10:49:25;33.00;44.70
20672;DHT22;10495;50.922;4.760;2023-06-10T10:51:55;32.80;44.90
20672;DHT22;10495;50.922;4.760;2023-06-10T10:54:29;32.60;44.70
20672;DHT22;10495;50.922;4.760;2023-06-10T10:57:21;32.70;44.60
20672;DHT22;10495;50.922;4.760;2023-06-10T10:59:57;32.20;44.50
20672;DHT22;10495;50.922;4.760;2023-06-10T11:05:02;32.20;45.20
20672;DHT22;10495;50.922;4.760;2023-06-10T11:07:30;32.50;44.50
20672;DHT22;10495;50.922;4.760;2023-06-10T11:10:12;32.60;43.30
20672;DHT22;10495;50.922;4.760;2023-06-10T11:15:11;32.30;44.20
20672;DHT22;10495;50.922;4.760;2023-06-10T11:17:37;32.40;43.90
20672;DHT22;10495;50.922;4.760;2023-06-10T11:20:02;32.30;43.80
20672;DHT22;10495;50.922;4.760;2023-06-10T11:22:28;32.00;44.40
20672;DHT22;10495;50.922;4.760;2023-06-10T11:24:54;32.20;42.60
20672;DHT22;10495;50.922;4.760;2023-06-10T11:27:23;32.10;42.70
20672;DHT22;10495;50.922;4.760;2023-06-10T11:30:19;32.10;42.90
20672;DHT22;10495;50.922;4.760;2023-06-10T11:32:45;32.10;43.90
20672;DHT22;10495;50.922;4.760;2023-06-10T11:35:16;31.90;44.60
20672;DHT22;10495;50.922;4.760;2023-06-10T11:37:42;31.50;44.60
20672;DHT22;10495;50.922;4.760;2023-06-10T11:40:08;31.60;44.20
20672;DHT22;10495;50.922;4.760;2023-06-10T11:42:39;31.50;44.20
20672;DHT22;10495;50.922;4.760;2023-06-10T11:45:06;31.70;44.00
20672;DHT22;10495;50.922;4.760;2023-06-10T11:47:33;31.80;44.00
20672;DHT22;10495;50.922;4.760;2023-06-10T11:49:59;31.90;44.00
20672;DHT22;10495;50.922;4.760;2023-06-10T11:52:31;31.70;43.60
20672;DHT22;10495;50.922;4.760;2023-06-10T11:55:04;31.60;43.10
20672;DHT22;10495;50.922;4.760;2023-06-10T11:57:34;31.50;43.90
20672;DHT22;10495;50.922;4.760;2023-06-10T12:00:06;31.90;42.40
20672;DHT22;10495;50.922;4.760;2023-06-10T12:02:33;32.30;42.30
20672;DHT22;10495;50.922;4.760;2023-06-10T12:05:12;32.30;42.80
20672;DHT22;10495;50.922;4.760;2023-06-10T12:07:38;32.30;42.30
20672;DHT22;10495;50.922;4.760;2023-06-10T12:10:04;32.20;42.10
20672;DHT22;10495;50.922;4.760;2023-06-10T12:12:30;32.00;41.80
20672;DHT22;10495;50.922;4.760;2023-06-10T12:17:36;32.00;41.80
20672;DHT22;10495;50.922;4.760;2023-06-10T12:20:04;31.90;42.40
20672;DHT22;10495;50.922;4.760;2023-06-10T12:22:41;31.80;42.60
20672;DHT22;10495;50.922;4.760;2023-06-10T12:25:07;32.00;42.30
20672;DHT22;10495;50.922;4.760;2023-06-10T12:27:34;32.30;42.10
20672;DHT22;10495;50.922;4.760;2023-06-10T12:30:03;32.20;42.00
20672;DHT22;10495;50.922;4.760;2023-06-10T12:35:05;32.40;41.60
20672;DHT22;10495;50.922;4.760;2023-06-10T12:37:32;32.30;42.00
20672;DHT22;10495;50.922;4.760;2023-06-10T12:40:05;32.20;42.10
20672;DHT22;10495;50.922;4.760;2023-06-10T12:42:37;31.90;42.10
20672;DHT22;10495;50.922;4.760;2023-06-10T12:45:03;31.90;42.70
20672;DHT22;10495;50.922;4.760;2023-06-10T12:47:34;32.30;42.60
20672;DHT22;10495;50.922;4.760;2023-06-10T12:50:01;32.20;42.70
20672;DHT22;10495;50.922;4.760;2023-06-10T12:52:28;32.30;42.60
20672;DHT22;10495;50.922;4.760;2023-06-10T12:54:54;32.20;42.90
20672;DHT22;10495;50.922;4.760;2023-06-10T12:57:20;32.10;42.90
20672;DHT22;10495;50.922;4.760;2023-06-10T12:59:46;32.30;43.00
20672;DHT22;10495;50.922;4.760;2023-06-10T13:02:18;32.20;42.30
20672;DHT22;10495;50.922;4.760;2023-06-10T13:04:44;32.50;42.60
20672;DHT22;10495;50.922;4.760;2023-06-10T13:07:10;32.10;42.60
20672;DHT22;10495;50.922;4.760;2023-06-10T13:09:36;32.20;42.90
20672;DHT22;10495;50.922;4.760;2023-06-10T13:12:02;32.10;42.70
20672;DHT22;10495;50.922;4.760;2023-06-10T13:14:28;32.20;42.40
20672;DHT22;10495;50.922;4.760;2023-06-10T13:16:54;32.40;42.60
20672;DHT22;10495;50.922;4.760;2023-06-10T13:19:20;32.50;42.50
20672;DHT22;10495;50.922;4.760;2023-06-10T13:21:47;32.50;42.60
20672;DHT22;10495;50.922;4.760;2023-06-10T13:24:13;32.40;42.50
20672;DHT22;10495;50.922;4.760;2023-06-10T13:26:38;32.40;42.80
20672;DHT22;10495;50.922;4.760;2023-06-10T13:29:04;32.20;42.10
20672;DHT22;10495;50.922;4.760;2023-06-10T13:31:30;32.20;42.20
20672;DHT22;10495;50.922;4.760;2023-06-10T13:33:57;32.50;42.20
20672;DHT22;10495;50.922;4.760;2023-06-10T13:36:23;32.60;42.90
20672;DHT22;10495;50.922;4.760;2023-06-10T13:38:49;32.50;42.10
20672;DHT22;10495;50.922;4.760;2023-06-10T13:41:15;32.60;42.10
20672;DHT22;10495;50.922;4.760;2023-06-10T13:43:41;32.60;42.30
20672;DHT22;10495;50.922;4.760;2023-06-10T13:46:06;32.40;42.40
20672;DHT22;10495;50.922;4.760;2023-06-10T13:48:32;32.30;42.20
20672;DHT22;10495;50.922;4.760;2023-06-10T13:50:58;32.40;42.50
20672;DHT22;10495;50.922;4.760;2023-06-10T13:53:25;32.00;43.10
20672;DHT22;10495;50.922;4.760;2023-06-10T13:55:50;32.10;42.30
20672;DHT22;10495;50.922;4.760;2023-06-10T13:58:16;32.30;42.70
20672;DHT22;10495;50.922;4.760;2023-06-10T14:00:41;31.90;42.50
20672;DHT22;10495;50.922;4.760;2023-06-10T14:03:07;31.70;43.00
20672;DHT22;10495;50.922;4.760;2023-06-10T14:05:33;32.00;42.90
20672;DHT22;10495;50.922;4.760;2023-06-10T14:07:59;32.00;43.40
20672;DHT22;10495;50.922;4.760;2023-06-10T14:10:24;31.80;42.60
20672;DHT22;10495;50.922;4.760;2023-06-10T14:12:50;31.80;42.10
20672;DHT22;10495;50.922;4.760;2023-06-10T14:15:16;31.60;42.50
20672;DHT22;10495;50.922;4.760;2023-06-10T14:17:42;31.90;42.30
20672;DHT22;10495;50.922;4.760;2023-06-10T14:20:08;32.00;41.70
20672;DHT22;10495;50.922;4.760;2023-06-10T14:22:34;32.10;42.00
20672;DHT22;10495;50.922;4.760;2023-06-10T14:24:59;32.10;42.50
20672;DHT22;10495;50.922;4.760;2023-06-10T14:27:25;32.10;42.10
20672;DHT22;10495;50.922;4.760;2023-06-10T14:29:51;32.00;42.50
20672;DHT22;10495;50.922;4.760;2023-06-10T14:32:16;32.10;42.70
20672;DHT22;10495;50.922;4.760;2023-06-10T14:34:42;32.20;42.40
20672;DHT22;10495;50.922;4.760;2023-06-10T14:37:10;32.50;42.10
20672;DHT22;10495;50.922;4.760;2023-06-10T14:39:35;32.20;42.10
20672;DHT22;10495;50.922;4.760;2023-06-10T14:42:01;32.20;41.80
20672;DHT22;10495;50.922;4.760;2023-06-10T14:44:27;32.20;42.10
20672;DHT22;10495;50.922;4.760;2023-06-10T14:46:52;32.50;41.50
20672;DHT22;10495;50.922;4.760;2023-06-10T14:49:18;32.40;41.20
20672;DHT22;10495;50.922;4.760;2023-06-10T14:51:43;32.20;41.90
20672;DHT22;10495;50.922;4.760;2023-06-10T14:54:10;32.60;41.90
20672;DHT22;10495;50.922;4.760;2023-06-10T14:56:35;32.70;42.30
20672;DHT22;10495;50.922;4.760;2023-06-10T14:59:01;32.70;42.20
20672;DHT22;10495;50.922;4.760;2023-06-10T15:01:27;32.30;42.60
20672;DHT22;10495;50.922;4.760;2023-06-10T15:03:52;32.00;42.50
20672;DHT22;10495;50.922;4.760;2023-06-10T15:06:18;32.10;42.80
20672;DHT22;10495;50.922;4.760;2023-06-10T15:08:46;32.30;42.70
20672;DHT22;10495;50.922;4.760;2023-06-10T15:11:14;32.20;42.20
20672;DHT22;10495;50.922;4.760;2023-06-10T15:13:40;32.10;42.50
20672;DHT22;10495;50.922;4.760;2023-06-10T15:16:05;32.10;42.40
20672;DHT22;10495;50.922;4.760;2023-06-10T15:18:32;32.00;42.50
20672;DHT22;10495;50.922;4.760;2023-06-10T15:20:57;32.20;42.50
20672;DHT22;10495;50.922;4.760;2023-06-10T15:23:23;32.10;42.70
20672;DHT22;10495;50.922;4.760;2023-06-10T15:25:48;32.00;42.60
20672;DHT22;10495;50.922;4.760;2023-06-10T15:28:14;32.10;42.80
20672;DHT22;10495;50.922;4.760;2023-06-10T15:30:40;32.10;42.10
20672;DHT22;10495;50.922;4.760;2023-06-10T15:33:05;32.20;42.30
20672;DHT22;10495;50.922;4.760;2023-06-10T15:35:32;32.00;41.90
20672;DHT22;10495;50.922;4.760;2023-06-10T15:37:58;32.00;42.50
20672;DHT22;10495;50.922;4.760;2023-06-10T15:40:23;32.20;42.30
20672;DHT22;10495;50.922;4.760;2023-06-10T15:42:49;32.60;42.00
20672;DHT22;10495;50.922;4.760;2023-06-10T15:45:15;32.50;42.00